createdAt,value
2023-02-13T00:00:43.057Z,94.90
2023-02-13T00:03:09.968Z,95.20
2023-02-13T00:05:36.973Z,95.30
2023-02-13T00:08:04.070Z,95.30
2023-02-13T00:10:30.983Z,95.30
2023-02-13T00:12:57.919Z,95.50
2023-02-13T00:15:24.929Z,95.70
2023-02-13T00:17:51.857Z,96.00
2023-02-13T00:20:18.855Z,96.20
2023-02-13T00:22:46.406Z,96.70
2023-02-13T00:25:13.746Z,97.00
2023-02-13T00:27:40.655Z,97.30
2023-02-13T00:30:08.578Z,97.80
2023-02-13T00:32:35.518Z,98.00
2023-02-13T00:35:02.527Z,98.30
2023-02-13T00:37:29.453Z,98.80
2023-02-13T00:39:56.456Z,99.10
2023-02-13T00:42:26.584Z,99.70
2023-02-13T00:44:54.041Z,99.90
2023-02-13T00:47:21.663Z,99.90
2023-02-13T00:49:48.619Z,99.90
2023-02-13T00:52:15.558Z,99.90
2023-02-13T00:54:42.437Z,99.90
2023-02-13T00:57:09.401Z,99.90
2023-02-13T00:59:36.256Z,99.90
2023-02-13T01:02:03.229Z,99.90
2023-02-13T01:04:30.136Z,99.90
2023-02-13T01:06:57.133Z,99.90
2023-02-13T01:09:25.697Z,99.90
2023-02-13T01:11:52.622Z,99.90
2023-02-13T01:14:19.565Z,99.90
2023-02-13T01:16:46.723Z,99.90
2023-02-13T01:19:13.690Z,99.90
2023-02-13T01:21:40.621Z,99.90
2023-02-13T01:24:07.828Z,99.90
2023-02-13T01:26:34.837Z,99.90
2023-02-13T01:29:01.938Z,99.90
2023-02-13T01:31:29.077Z,99.90
2023-02-13T01:33:59.599Z,99.90
2023-02-13T01:36:27.114Z,99.90
2023-02-13T01:38:56.527Z,99.90
2023-02-13T01:41:25.223Z,99.90
2023-02-13T01:43:57.487Z,99.90
2023-02-13T01:46:44.687Z,99.90
2023-02-13T01:49:20.522Z,99.90
2023-02-13T01:51:51.590Z,99.90
2023-02-13T01:54:24.833Z,99.90
2023-02-13T01:57:00.848Z,99.90
2023-02-13T01:59:33.540Z,99.90
2023-02-13T02:02:01.499Z,99.90
2023-02-13T02:04:34.725Z,99.90
2023-02-13T02:07:07.668Z,99.90
2023-02-13T02:09:39.971Z,99.90
2023-02-13T02:12:31.606Z,99.90
2023-02-13T02:15:00.152Z,99.90
2023-02-13T02:17:27.942Z,99.90
2023-02-13T02:20:24.254Z,99.90
2023-02-13T02:23:46.753Z,99.90
2023-02-13T02:26:51.280Z,99.90
2023-02-13T02:29:50.733Z,99.90
2023-02-13T02:32:30.780Z,99.90
2023-02-13T02:35:32.244Z,99.90
2023-02-13T02:44:45.856Z,99.90
2023-02-13T02:47:51.797Z,99.90
2023-02-13T02:50:47.111Z,99.90
2023-02-13T02:53:33.814Z,99.90
2023-02-13T02:56:20.573Z,99.90
2023-02-13T02:59:11.578Z,99.90
2023-02-13T03:01:59.548Z,99.90
2023-02-13T03:04:52.452Z,99.90
2023-02-13T03:07:20.785Z,99.90
2023-02-13T03:10:10.544Z,99.90
2023-02-13T03:13:08.284Z,99.90
2023-02-13T03:15:57.425Z,99.90
2023-02-13T03:18:43.301Z,99.90
2023-02-13T03:22:05.634Z,99.90
2023-02-13T03:24:55.968Z,99.90
2023-02-13T03:28:27.598Z,99.90
2023-02-13T03:31:13.569Z,99.90
2023-02-13T03:34:08.846Z,99.90
2023-02-13T03:37:23.640Z,99.90
2023-02-13T03:40:23.433Z,99.90
2023-02-13T03:43:00.937Z,99.90
2023-02-13T03:45:50.096Z,99.90
2023-02-13T03:48:49.342Z,99.90
2023-02-13T03:51:29.617Z,99.90
2023-02-13T03:54:12.004Z,99.90
2023-02-13T03:57:02.256Z,99.90
2023-02-13T03:59:38.970Z,99.90
2023-02-13T04:02:20.801Z,99.90
2023-02-13T04:04:57.473Z,99.90
2023-02-13T04:07:32.207Z,99.90
2023-02-13T04:10:15.413Z,99.90
2023-02-13T04:15:42.366Z,99.90
2023-02-13T04:18:15.261Z,99.90
2023-02-13T04:20:42.271Z,99.30
2023-02-13T04:23:14.128Z,98.70
2023-02-13T04:25:44.043Z,98.10
2023-02-13T04:28:14.030Z,97.80
2023-02-13T04:30:41.084Z,97.50
2023-02-13T04:33:08.655Z,97.10
2023-02-13T04:35:37.420Z,96.40
2023-02-13T04:38:06.850Z,95.80
2023-02-13T04:40:33.772Z,96.00
2023-02-13T04:43:01.842Z,95.70
2023-02-13T04:45:31.511Z,95.20
2023-02-13T04:48:01.895Z,95.10
2023-02-13T04:50:28.797Z,95.00
2023-02-13T04:52:57.790Z,94.80
2023-02-13T04:55:26.586Z,95.10
2023-02-13T04:57:59.408Z,94.90
2023-02-13T05:00:28.553Z,95.00
2023-02-13T05:03:01.285Z,94.70
2023-02-13T05:05:31.069Z,94.40
2023-02-13T05:07:58.821Z,94.40
2023-02-13T05:10:29.020Z,95.00
2023-02-13T05:13:00.038Z,95.10
2023-02-13T05:15:29.242Z,95.40
2023-02-13T05:17:58.875Z,95.80
2023-02-13T05:20:25.829Z,96.00
2023-02-13T05:23:13.008Z,96.30
2023-02-13T05:25:42.041Z,96.40
2023-02-13T05:28:28.178Z,96.40
2023-02-13T05:30:55.326Z,96.20
2023-02-13T05:33:22.323Z,95.50
2023-02-13T05:35:49.241Z,94.80
2023-02-13T05:38:16.155Z,94.20
2023-02-13T05:40:43.081Z,94.20
2023-02-13T05:43:10.215Z,93.80
2023-02-13T05:45:37.179Z,93.80
2023-02-13T05:48:04.141Z,94.00
2023-02-13T05:50:31.027Z,94.00
2023-02-13T05:52:57.911Z,93.70
2023-02-13T05:55:24.791Z,93.50
2023-02-13T05:57:56.682Z,93.50
2023-02-13T06:00:24.027Z,93.60
2023-02-13T06:02:53.467Z,93.80
2023-02-13T06:05:20.382Z,94.00
2023-02-13T06:07:47.232Z,94.10
2023-02-13T06:10:14.179Z,94.40
2023-02-13T06:12:42.671Z,94.90
2023-02-13T06:15:09.829Z,94.90
2023-02-13T06:17:36.733Z,94.90
2023-02-13T06:20:03.922Z,94.90
2023-02-13T06:22:30.788Z,95.20
2023-02-13T06:24:57.691Z,95.40
2023-02-13T06:27:24.559Z,95.60
2023-02-13T06:29:51.439Z,95.90
2023-02-13T06:32:18.366Z,96.10
2023-02-13T06:34:45.333Z,96.20
2023-02-13T06:37:12.207Z,96.40
2023-02-13T06:39:39.055Z,96.60
2023-02-13T06:42:06.077Z,96.60
2023-02-13T06:44:32.907Z,96.60
2023-02-13T06:46:59.867Z,96.60
2023-02-13T06:49:26.877Z,96.40
2023-02-13T06:51:53.769Z,96.40
2023-02-13T06:54:20.683Z,96.60
2023-02-13T06:56:48.605Z,96.50
2023-02-13T06:59:15.573Z,96.60
2023-02-13T07:01:42.436Z,96.40
2023-02-13T07:04:09.351Z,96.40
2023-02-13T07:06:36.438Z,96.80
2023-02-13T07:09:04.692Z,96.70
2023-02-13T07:11:31.688Z,96.20
2023-02-13T07:13:58.574Z,96.00
2023-02-13T07:16:25.603Z,96.10
2023-02-13T07:18:52.535Z,96.20
2023-02-13T07:21:19.491Z,96.00
2023-02-13T07:23:46.428Z,95.70
2023-02-13T07:26:13.256Z,95.80
2023-02-13T07:28:40.207Z,96.30
2023-02-13T07:31:07.708Z,96.30
2023-02-13T07:33:35.266Z,95.70
2023-02-13T07:36:03.865Z,95.40
2023-02-13T07:38:32.692Z,94.40
2023-02-13T07:41:04.377Z,93.60
2023-02-13T07:43:31.820Z,93.80
2023-02-13T07:46:00.256Z,93.90
2023-02-13T07:48:28.107Z,93.80
2023-02-13T07:50:59.926Z,93.10
2023-02-13T07:53:26.862Z,92.00
2023-02-13T07:55:53.705Z,91.10
2023-02-13T07:58:20.631Z,90.60
2023-02-13T08:00:47.707Z,90.20
2023-02-13T08:03:14.654Z,88.10
2023-02-13T08:05:41.729Z,88.50
2023-02-13T08:08:08.579Z,86.70
2023-02-13T08:10:54.074Z,86.10
2023-02-13T08:13:21.147Z,83.80
2023-02-13T08:15:49.373Z,81.80
2023-02-13T08:18:18.846Z,80.80
2023-02-13T08:20:46.572Z,78.50
2023-02-13T08:23:13.447Z,78.60
2023-02-13T08:25:40.677Z,79.50
2023-02-13T08:28:07.654Z,79.30
2023-02-13T08:30:34.742Z,80.40
2023-02-13T08:33:01.764Z,79.60
2023-02-13T08:35:31.547Z,74.30
2023-02-13T08:38:03.005Z,74.60
2023-02-13T08:40:29.960Z,74.00
2023-02-13T08:43:05.071Z,69.80
2023-02-13T08:45:33.123Z,70.00
2023-02-13T08:48:00.547Z,68.10
2023-02-13T08:50:28.260Z,66.70
2023-02-13T08:52:55.287Z,65.30
2023-02-13T08:55:22.213Z,64.60
2023-02-13T08:57:49.073Z,61.60
2023-02-13T09:00:16.362Z,61.60
2023-02-13T09:02:43.321Z,59.50
2023-02-13T09:05:10.330Z,55.30
2023-02-13T09:07:37.196Z,50.40
2023-02-13T09:10:04.434Z,51.60
2023-02-13T09:12:31.304Z,49.90
2023-02-13T09:14:59.764Z,44.80
2023-02-13T09:17:26.731Z,41.70
2023-02-13T09:19:53.649Z,23.70
2023-02-13T09:22:20.616Z,10.00
2023-02-13T09:24:47.856Z,6.30
2023-02-13T09:27:14.899Z,2.30
2023-02-13T09:29:41.772Z,6.20
2023-02-13T09:32:08.916Z,11.00
2023-02-13T09:34:35.804Z,1.00
2023-02-13T09:37:02.733Z,1.00
2023-02-13T09:39:29.601Z,1.00
2023-02-13T09:41:57.733Z,1.00
2023-02-13T09:44:39.178Z,1.00
2023-02-13T09:47:31.075Z,4.50
2023-02-13T09:50:06.128Z,16.30
2023-02-13T09:52:35.442Z,7.00
2023-02-13T09:55:03.307Z,1.30
2023-02-13T09:57:44.312Z,1.00
2023-02-13T10:00:24.017Z,1.00
2023-02-13T10:03:23.768Z,1.00
2023-02-13T10:06:15.440Z,2.40
2023-02-13T10:09:09.372Z,6.10
2023-02-13T10:12:22.532Z,5.40
2023-02-13T10:15:36.943Z,1.50
2023-02-13T10:18:25.485Z,2.90
2023-02-13T10:21:00.697Z,1.80
2023-02-13T10:23:35.114Z,3.80
2023-02-13T10:26:06.354Z,7.00
2023-02-13T10:28:38.986Z,7.10
2023-02-13T10:31:12.079Z,9.60
2023-02-13T10:33:56.884Z,11.50
2023-02-13T10:36:31.296Z,10.80
2023-02-13T10:39:17.668Z,12.00
2023-02-13T10:41:59.949Z,10.30
2023-02-13T10:45:23.659Z,14.10
2023-02-13T10:51:51.927Z,14.10
2023-02-13T10:54:52.907Z,16.10
2023-02-13T10:58:12.995Z,12.70
2023-02-13T11:01:07.032Z,12.00
2023-02-13T11:03:33.997Z,15.40
2023-02-13T11:06:07.153Z,14.00
2023-02-13T11:08:39.213Z,17.00
2023-02-13T11:11:33.614Z,15.90
2023-02-13T11:14:23.983Z,11.90
2023-02-13T11:17:06.062Z,13.50
2023-02-13T11:19:54.208Z,14.50
2023-02-13T11:22:42.816Z,15.90
2023-02-13T11:25:25.081Z,15.80
2023-02-13T11:28:07.373Z,17.80
2023-02-13T11:30:37.855Z,17.90
2023-02-13T11:33:21.719Z,17.90
2023-02-13T11:35:48.755Z,16.30
2023-02-13T11:38:24.452Z,12.40
2023-02-13T11:41:05.473Z,13.50
2023-02-13T11:43:43.651Z,15.30
2023-02-13T11:46:26.747Z,15.10
2023-02-13T11:49:20.741Z,17.80
2023-02-13T11:51:53.234Z,19.40
2023-02-13T11:54:42.270Z,21.90
2023-02-13T11:57:32.093Z,23.20
2023-02-13T12:00:01.361Z,23.60
2023-02-13T12:02:46.170Z,26.00
2023-02-13T12:05:23.524Z,25.60
2023-02-13T12:07:51.146Z,26.90
2023-02-13T12:10:37.582Z,25.90
2023-02-13T12:13:33.010Z,24.20
2023-02-13T12:16:21.787Z,26.00
2023-02-13T12:18:55.990Z,25.50
2023-02-13T12:22:07.125Z,23.90
2023-02-13T12:25:28.738Z,23.80
2023-02-13T12:28:19.802Z,21.80
2023-02-13T12:31:25.483Z,21.10
2023-02-13T12:34:44.961Z,20.90
2023-02-13T12:37:48.087Z,21.30
2023-02-13T12:40:43.208Z,21.10
2023-02-13T12:43:54.908Z,18.40
2023-02-13T12:47:21.815Z,20.20
2023-02-13T13:28:45.256Z,18.20
2023-02-13T13:31:13.321Z,17.70
2023-02-13T13:33:43.803Z,17.90
2023-02-13T13:36:45.537Z,17.20
2023-02-13T13:39:30.884Z,18.40
2023-02-13T13:42:19.003Z,17.40
2023-02-13T13:45:03.251Z,17.70
2023-02-13T13:47:59.092Z,18.90
2023-02-13T13:50:30.613Z,16.80
2023-02-13T13:53:23.340Z,18.40
2023-02-13T13:56:00.146Z,18.50
2023-02-13T13:58:57.373Z,19.50
2023-02-13T14:01:31.742Z,20.30
2023-02-13T14:04:03.968Z,19.90
2023-02-13T14:07:15.591Z,21.40
2023-02-13T14:09:43.838Z,21.40
2023-02-13T14:18:44.229Z,20.60
2023-02-13T14:21:12.773Z,19.10
2023-02-13T14:23:53.759Z,14.90
2023-02-13T14:26:38.520Z,5.90
2023-02-13T14:29:24.970Z,1.00
2023-02-13T14:32:02.370Z,1.00
2023-02-13T14:34:33.046Z,1.00
2023-02-13T14:37:34.619Z,1.00
2023-02-13T14:40:15.402Z,1.00
2023-02-13T14:42:47.555Z,1.00
2023-02-13T14:45:21.135Z,1.00
2023-02-13T14:47:56.775Z,1.00
2023-02-13T14:50:49.100Z,1.00
2023-02-13T14:53:31.722Z,1.00
2023-02-13T14:56:06.972Z,1.00
2023-02-13T14:58:37.430Z,1.00
2023-02-13T15:01:42.053Z,1.00
2023-02-13T15:04:41.078Z,1.00
2023-02-13T15:07:16.208Z,1.00
2023-02-13T15:09:50.723Z,1.00
2023-02-13T15:12:57.120Z,3.60
2023-02-13T15:15:33.313Z,9.80
2023-02-13T15:18:04.020Z,14.10
2023-02-13T15:20:34.853Z,15.80
2023-02-13T15:23:02.440Z,17.60
2023-02-13T15:25:36.497Z,18.30
2023-02-13T15:28:05.790Z,19.90
2023-02-13T15:30:36.440Z,20.40
2023-02-13T15:33:24.814Z,20.30
2023-02-13T15:36:06.320Z,21.40
2023-02-13T15:38:39.414Z,22.40
2023-02-13T15:41:14.211Z,22.50
2023-02-13T15:43:44.136Z,22.50
2023-02-13T15:46:48.156Z,22.90
2023-02-13T15:49:18.725Z,23.20
2023-02-13T15:51:47.487Z,24.10
2023-02-13T15:54:29.203Z,25.20
2023-02-13T15:57:00.223Z,25.70
2023-02-13T15:59:36.606Z,26.20
2023-02-13T16:02:08.444Z,26.30
2023-02-13T16:04:36.602Z,27.00
2023-02-13T16:07:03.861Z,27.70
2023-02-13T16:09:33.753Z,28.20
2023-02-13T16:12:24.312Z,29.30
2023-02-13T16:15:02.864Z,29.80
2023-02-13T16:17:32.701Z,31.40
2023-02-13T16:20:05.606Z,33.50
2023-02-13T16:22:56.187Z,34.00
2023-02-13T16:25:26.634Z,37.50
2023-02-13T16:27:57.494Z,40.00
2023-02-13T16:30:52.031Z,41.40
2023-02-13T16:33:49.943Z,43.60
2023-02-13T16:36:28.892Z,45.40
2023-02-13T16:38:56.029Z,47.20
2023-02-13T16:41:33.151Z,48.90
2023-02-13T16:44:04.867Z,50.50
2023-02-13T16:46:39.834Z,51.40
2023-02-13T16:49:17.043Z,53.70
2023-02-13T16:52:26.810Z,54.40
2023-02-13T16:54:57.053Z,56.20
2023-02-13T16:57:33.233Z,58.00
2023-02-13T17:00:24.519Z,59.90
2023-02-13T17:02:52.403Z,61.90
2023-02-13T17:05:22.902Z,64.30
2023-02-13T17:07:53.118Z,65.70
2023-02-13T17:10:35.163Z,66.60
2023-02-13T17:13:13.175Z,68.60
2023-02-13T17:15:45.441Z,69.80
2023-02-13T17:18:12.412Z,70.20
2023-02-13T17:20:43.502Z,72.10
2023-02-13T17:23:17.949Z,71.20
2023-02-13T17:25:46.310Z,70.70
2023-02-13T17:28:21.052Z,70.60
2023-02-13T17:30:51.198Z,70.10
2023-02-13T17:33:26.606Z,70.10
2023-02-13T17:35:54.019Z,68.90
2023-02-13T17:38:21.241Z,72.50
2023-02-13T17:40:48.804Z,73.90
2023-02-13T17:43:18.371Z,75.20
2023-02-13T17:45:48.485Z,75.40
2023-02-13T17:48:15.973Z,76.00
2023-02-13T17:50:43.044Z,78.00
2023-02-13T17:53:25.977Z,79.40
2023-02-13T17:55:53.368Z,80.70
2023-02-13T17:58:20.374Z,81.50
2023-02-13T18:00:47.779Z,81.00
2023-02-13T18:03:14.790Z,80.90
2023-02-13T18:05:42.197Z,82.70
2023-02-13T18:08:09.282Z,82.70
2023-02-13T18:10:37.541Z,83.80
2023-02-13T18:13:04.755Z,88.10
2023-02-13T18:15:43.297Z,91.60
2023-02-13T18:18:11.648Z,91.80
2023-02-13T18:20:39.149Z,93.10
2023-02-13T18:23:07.219Z,94.50
2023-02-13T18:25:34.894Z,95.30
2023-02-13T18:28:02.003Z,94.90
2023-02-13T18:30:29.356Z,94.40
2023-02-13T18:32:59.031Z,93.20
2023-02-13T18:35:26.251Z,92.40
2023-02-13T18:37:53.493Z,93.10
2023-02-13T18:40:20.779Z,94.40
2023-02-13T18:42:49.677Z,93.50
2023-02-13T18:45:17.377Z,95.40
2023-02-13T18:47:44.440Z,96.30
2023-02-13T18:50:11.693Z,96.70
2023-02-13T18:52:38.570Z,96.70
2023-02-13T18:55:07.178Z,96.90
2023-02-13T18:57:34.545Z,99.10
2023-02-13T19:00:01.752Z,99.10
2023-02-13T19:02:28.722Z,99.00
2023-02-13T19:04:55.676Z,99.90
2023-02-13T19:07:22.921Z,99.90
2023-02-13T19:09:49.978Z,99.90
2023-02-13T19:12:16.959Z,99.90
2023-02-13T19:14:44.240Z,99.90
2023-02-13T19:17:11.589Z,99.90
2023-02-13T19:19:38.697Z,99.90
2023-02-13T19:22:05.543Z,99.90
2023-02-13T19:24:33.775Z,99.90
2023-02-13T19:27:00.623Z,99.90
2023-02-13T19:29:27.585Z,99.90
2023-02-13T19:31:54.869Z,99.90
2023-02-13T19:34:21.983Z,99.90
2023-02-13T19:36:48.913Z,99.90
2023-02-13T19:39:18.577Z,99.90
2023-02-13T19:41:45.459Z,99.90
2023-02-13T19:44:12.668Z,99.90
2023-02-13T19:46:39.589Z,99.90
2023-02-13T19:49:06.561Z,99.90
2023-02-13T19:51:35.016Z,99.90
2023-02-13T19:54:07.316Z,99.90
2023-02-13T19:56:36.915Z,99.90
2023-02-13T19:59:05.370Z,99.90
2023-02-13T20:01:32.473Z,99.90
2023-02-13T20:03:59.607Z,99.90
2023-02-13T20:06:32.638Z,99.90
2023-02-13T20:09:01.792Z,99.90
2023-02-13T20:11:29.000Z,99.90
2023-02-13T20:13:57.616Z,99.90
2023-02-13T20:16:25.730Z,99.90
2023-02-13T20:18:52.950Z,99.90
2023-02-13T20:21:20.109Z,99.90
2023-02-13T20:23:51.370Z,99.90
2023-02-13T20:26:19.608Z,99.90
2023-02-13T20:28:47.977Z,99.90
2023-02-13T20:31:20.616Z,99.90
2023-02-13T20:33:49.519Z,99.90
2023-02-13T20:36:22.361Z,99.90
2023-02-13T20:38:50.648Z,99.90
2023-02-13T20:41:20.803Z,99.90
2023-02-13T20:43:48.114Z,99.90
2023-02-13T20:46:18.729Z,99.90
2023-02-13T20:48:48.930Z,99.90
2023-02-13T20:51:17.717Z,99.90
2023-02-13T20:53:45.616Z,99.90
2023-02-13T20:56:18.161Z,99.90
2023-02-13T20:58:46.707Z,99.90
2023-02-13T21:01:16.550Z,99.90
2023-02-13T21:03:44.416Z,99.90
2023-02-13T21:06:12.214Z,99.90
2023-02-13T21:08:39.442Z,99.90
2023-02-13T21:11:07.725Z,99.90
2023-02-13T21:13:35.805Z,99.90
2023-02-13T21:16:33.964Z,99.90
2023-02-13T21:19:06.513Z,99.90
2023-02-13T21:21:36.075Z,99.90
2023-02-13T21:24:08.210Z,99.90
2023-02-13T21:26:36.251Z,99.90
2023-02-13T21:29:03.725Z,99.90
2023-02-13T21:31:47.487Z,99.90
2023-02-13T21:34:16.355Z,99.90
2023-02-13T21:36:43.363Z,99.90
2023-02-13T21:39:11.890Z,99.90
2023-02-13T21:41:43.336Z,99.90
2023-02-13T21:44:14.267Z,99.90
2023-02-13T21:46:42.411Z,99.90
2023-02-13T21:49:12.970Z,99.90
2023-02-13T21:51:40.080Z,99.90
2023-02-13T21:54:07.003Z,99.90
2023-02-13T21:56:36.583Z,99.90
2023-02-13T21:59:04.203Z,99.90
2023-02-13T22:01:37.176Z,99.90
2023-02-13T22:04:06.741Z,99.90
2023-02-13T22:06:36.946Z,99.90
2023-02-13T22:09:07.749Z,99.90
2023-02-13T22:11:35.650Z,99.90
2023-02-13T22:14:04.421Z,99.90
2023-02-13T22:16:33.379Z,99.90
2023-02-13T22:19:00.774Z,99.90
2023-02-13T22:21:29.784Z,99.90
2023-02-13T22:23:57.092Z,99.90
2023-02-13T22:26:32.347Z,99.90
2023-02-13T22:29:07.663Z,99.90
2023-02-13T22:31:35.530Z,99.90
2023-02-13T22:34:04.940Z,99.90
2023-02-13T22:36:40.248Z,99.90
2023-02-13T22:39:08.722Z,99.90
2023-02-13T22:41:35.833Z,99.90
2023-02-13T22:44:02.855Z,99.90
2023-02-13T22:46:31.980Z,99.90
2023-02-13T22:48:59.596Z,99.90
2023-02-13T22:51:31.536Z,99.90
2023-02-13T22:53:59.322Z,99.90
2023-02-13T22:56:27.784Z,99.90
2023-02-13T22:58:54.772Z,99.90
2023-02-13T23:01:24.482Z,99.90
2023-02-13T23:03:51.656Z,99.90
2023-02-13T23:06:19.019Z,99.90
2023-02-13T23:08:46.160Z,99.90
2023-02-13T23:11:35.127Z,99.90
2023-02-13T23:14:02.994Z,99.90
2023-02-13T23:16:53.000Z,99.90
2023-02-13T23:19:20.938Z,99.90
2023-02-13T23:21:47.888Z,99.90
2023-02-13T23:24:15.176Z,99.90
2023-02-13T23:26:42.399Z,99.90
2023-02-13T23:29:09.607Z,99.90
2023-02-13T23:31:36.712Z,99.90
2023-02-13T23:34:03.828Z,99.90
2023-02-13T23:36:30.693Z,99.90
2023-02-13T23:38:57.598Z,99.90
2023-02-13T23:41:24.577Z,99.90
2023-02-13T23:43:51.605Z,99.90
2023-02-13T23:46:18.533Z,99.90
2023-02-13T23:48:46.533Z,99.90
2023-02-13T23:51:13.594Z,99.90
2023-02-13T23:53:40.534Z,99.90
2023-02-13T23:56:07.919Z,99.90
2023-02-13T23:58:35.113Z,99.90
